KNRB/NRB METAR and TAF weather

Enter ICAO airport designator
Station Type Date Time Source
KNRB METAR 2019/11/18 10:59 UTC NOAA

KNRB 181059Z 27006KT 10SM BKN033 OVC065 09/09 A2986 RMK AO2 T00940094 $


Station Type Date Time Source
KNRB Decoded METAR 2019/11/18 10:59 UTC NOAA

MAYPORT NAVAL AIR FACILITY, FL, United States (KNRB) 30-24N 81-25W 4M
Nov 18, 2019 - 05:59 AM EST / 2019.11.18 1059 UTC
Wind: from the W (270 degrees) at 7 MPH (6 KT):0
Visibility: 10 mile(s):0
Sky conditions: overcast
Temperature: 48.9 F (9.4 C)
Dew Point: 48.9 F (9.4 C)
Relative Humidity: 100%
Pressure (altimeter): 29.86 in. Hg (1011 hPa)
ob: KNRB 181059Z 27006KT 10SM BKN033 OVC065 09/09 A2986 RMK AO2 T00940094
cycle: 11

Station Type Date Time Source
KNRB TAF 2019/11/18 23:36 UTC NOAA

TAF
AMD KNRB 1723/1823 VRB05KT 9999 BKN025 QNH2984INS
FM180200 VRB05KT 9999 SCT030 SCT250 QNH2980INS
TEMPO 1803/1807 OVC030
FM182000 28008KT 9999 FEW030 SCT250 QNH2977INS AUTOMATED SENSOR METWATCH 1723 TIL 1810
AMD 0323 T10/1810Z T19/1818Z FN00216

Example: see airport list